createdAt,value
2018-06-04T00:02:28.130Z,16.50
2018-06-04T00:04:58.147Z,16.60
2018-06-04T00:07:26.751Z,16.50
2018-06-04T00:09:55.293Z,16.50
2018-06-04T00:12:23.916Z,16.40
2018-06-04T00:14:52.809Z,16.30
2018-06-04T00:17:21.529Z,16.30
2018-06-04T00:19:50.488Z,16.30
2018-06-04T00:22:19.480Z,16.20
2018-06-04T00:24:48.429Z,16.10
2018-06-04T00:29:45.514Z,16.00
2018-06-04T00:32:14.101Z,16.10
2018-06-04T00:37:42.684Z,16.10
2018-06-04T00:40:11.293Z,16.00
2018-06-04T00:42:39.885Z,16.00
2018-06-04T00:45:08.651Z,16.00
2018-06-04T00:47:37.264Z,16.10
2018-06-04T00:50:05.873Z,16.10
2018-06-04T00:52:34.455Z,16.10
2018-06-04T00:55:03.064Z,16.20
2018-06-04T00:57:32.543Z,16.10
2018-06-04T01:00:01.434Z,16.10
2018-06-04T01:02:30.045Z,16.10
2018-06-04T01:04:59.301Z,16.10
2018-06-04T01:07:29.316Z,16.20
2018-06-04T01:09:57.978Z,16.10
2018-06-04T01:12:26.487Z,16.10
2018-06-04T01:14:55.140Z,16.10
2018-06-04T01:17:23.814Z,16.10
2018-06-04T01:19:52.453Z,16.10
2018-06-04T01:22:21.087Z,16.10
2018-06-04T01:24:49.657Z,16.10
2018-06-04T01:27:18.272Z,16.10
2018-06-04T01:29:46.935Z,16.10
2018-06-04T01:32:15.806Z,16.10
2018-06-04T01:34:44.419Z,16.10
2018-06-04T01:37:13.100Z,16.10
2018-06-04T01:42:11.259Z,16.10
2018-06-04T01:44:39.849Z,16.10
2018-06-04T01:47:08.549Z,16.10
2018-06-04T01:49:37.194Z,16.10
2018-06-04T01:52:05.926Z,16.00
2018-06-04T01:54:34.521Z,16.00
2018-06-04T01:57:03.163Z,15.90
2018-06-04T01:59:31.781Z,15.80
2018-06-04T02:02:00.432Z,15.80
2018-06-04T02:04:29.044Z,15.80
2018-06-04T02:06:57.613Z,15.70
2018-06-04T02:09:26.216Z,15.70
2018-06-04T02:11:54.854Z,15.60
2018-06-04T02:14:23.447Z,15.60
2018-06-04T02:16:52.022Z,15.60
2018-06-04T02:19:21.242Z,15.60
2018-06-04T02:21:49.960Z,15.60
2018-06-04T02:24:18.574Z,15.60
2018-06-04T02:26:47.301Z,15.60
2018-06-04T02:29:16.310Z,15.60
2018-06-04T02:31:45.264Z,15.60
2018-06-04T02:34:13.896Z,15.60
2018-06-04T02:36:42.542Z,15.70
2018-06-04T02:39:11.218Z,15.60
2018-06-04T02:41:39.924Z,15.60
2018-06-04T02:44:08.816Z,15.60
2018-06-04T02:46:37.730Z,15.50
2018-06-04T02:49:06.495Z,15.50
2018-06-04T02:51:35.828Z,15.50
2018-06-04T02:54:04.480Z,15.50
2018-06-04T02:56:33.510Z,15.50
2018-06-04T02:59:02.104Z,15.50
2018-06-04T03:01:30.851Z,15.50
2018-06-04T03:03:59.956Z,15.40
2018-06-04T03:06:28.548Z,15.40
2018-06-04T03:08:57.212Z,15.50
2018-06-04T03:11:26.156Z,15.50
2018-06-04T03:13:54.834Z,15.50
2018-06-04T03:16:23.419Z,15.40
2018-06-04T03:18:52.130Z,15.40
2018-06-04T03:21:20.835Z,15.40
2018-06-04T03:23:49.364Z,15.40
2018-06-04T03:26:17.956Z,15.40
2018-06-04T03:28:46.536Z,15.50
2018-06-04T03:31:15.289Z,15.50
2018-06-04T03:33:44.916Z,15.50
2018-06-04T03:36:13.623Z,15.60
2018-06-04T03:38:42.639Z,15.60
2018-06-04T03:41:11.449Z,15.60
2018-06-04T03:43:40.180Z,15.60
2018-06-04T03:46:09.169Z,15.60
2018-06-04T03:48:37.934Z,15.60
2018-06-04T03:51:07.653Z,15.60
2018-06-04T03:53:37.057Z,15.60
2018-06-04T03:56:06.095Z,15.70
2018-06-04T03:58:34.760Z,15.70
2018-06-04T04:01:03.487Z,15.80
2018-06-04T04:03:32.196Z,15.80
2018-06-04T04:06:00.780Z,15.80
2018-06-04T04:08:29.311Z,15.90
2018-06-04T04:10:58.186Z,15.90
2018-06-04T04:13:27.115Z,16.00
2018-06-04T04:15:55.628Z,16.00
2018-06-04T04:18:24.303Z,16.10
2018-06-04T04:20:52.766Z,16.10
2018-06-04T04:23:21.671Z,16.20
2018-06-04T04:25:50.157Z,16.20
2018-06-04T04:28:19.438Z,16.30
2018-06-04T04:30:48.261Z,16.50
2018-06-04T04:33:17.289Z,16.50
2018-06-04T04:35:46.692Z,16.60
2018-06-04T04:38:15.493Z,16.70
2018-06-04T04:40:44.227Z,16.80
2018-06-04T04:43:13.535Z,16.90
2018-06-04T04:45:42.536Z,17.00
2018-06-04T04:48:12.036Z,17.10
2018-06-04T04:50:41.558Z,17.40
2018-06-04T04:53:10.442Z,17.50
2018-06-04T04:55:39.186Z,17.50
2018-06-04T04:58:07.868Z,17.60
2018-06-04T05:00:36.585Z,17.70
2018-06-04T05:03:05.407Z,17.80
2018-06-04T05:05:34.047Z,17.80
2018-06-04T05:08:03.143Z,17.90
2018-06-04T05:10:31.912Z,17.90
2018-06-04T05:13:00.588Z,18.10
2018-06-04T05:15:29.194Z,18.20
2018-06-04T05:17:57.908Z,18.40
2018-06-04T05:20:27.357Z,18.40
2018-06-04T05:22:55.954Z,18.60
2018-06-04T05:25:24.766Z,18.60
2018-06-04T05:27:53.735Z,18.60
2018-06-04T05:30:22.390Z,18.70
2018-06-04T05:32:51.028Z,18.90
2018-06-04T05:35:19.690Z,18.90
2018-06-04T05:37:48.708Z,19.00
2018-06-04T05:40:17.542Z,19.10
2018-06-04T05:42:46.300Z,19.20
2018-06-04T05:45:15.279Z,19.30
2018-06-04T05:47:44.904Z,19.30
2018-06-04T05:50:13.694Z,19.30
2018-06-04T05:52:42.334Z,19.30
2018-06-04T05:55:11.005Z,19.40
2018-06-04T05:57:39.673Z,19.40
2018-06-04T06:00:08.524Z,19.40
2018-06-04T06:02:37.812Z,19.40
2018-06-04T06:05:06.523Z,19.50
2018-06-04T06:07:35.242Z,19.50
2018-06-04T06:10:04.061Z,19.70
2018-06-04T06:12:33.929Z,19.70
2018-06-04T06:15:02.474Z,19.80
2018-06-04T06:17:31.258Z,19.90
2018-06-04T06:19:59.986Z,19.80
2018-06-04T06:22:29.188Z,19.80
2018-06-04T06:24:59.584Z,20.00
2018-06-04T06:27:28.757Z,20.00
2018-06-04T06:32:27.696Z,20.20
2018-06-04T06:34:56.329Z,20.30
2018-06-04T06:37:24.920Z,20.30
2018-06-04T06:39:53.601Z,20.30
2018-06-04T06:42:22.224Z,20.30
2018-06-04T06:44:50.891Z,20.40
2018-06-04T06:47:19.493Z,20.40
2018-06-04T06:49:48.146Z,20.40
2018-06-04T06:52:16.796Z,20.60
2018-06-04T06:54:45.517Z,20.70
2018-06-04T06:57:14.525Z,20.80
2018-06-04T06:59:43.165Z,20.90
2018-06-04T07:02:12.429Z,20.80
2018-06-04T07:04:41.184Z,21.00
2018-06-04T07:07:09.882Z,21.30
2018-06-04T07:09:38.486Z,21.40
2018-06-04T07:12:07.621Z,21.40
2018-06-04T07:14:36.419Z,21.70
2018-06-04T07:17:05.088Z,22.00
2018-06-04T07:19:33.777Z,22.20
2018-06-04T07:22:02.439Z,22.30
2018-06-04T07:24:31.094Z,22.50
2018-06-04T07:26:59.724Z,22.70
2018-06-04T07:29:28.460Z,22.70
2018-06-04T07:31:57.209Z,23.10
2018-06-04T07:34:25.843Z,23.50
2018-06-04T07:36:54.428Z,23.50
2018-06-04T07:39:23.770Z,23.70
2018-06-04T07:41:52.857Z,24.20
2018-06-04T07:44:21.541Z,24.40
2018-06-04T07:46:50.273Z,24.40
2018-06-04T07:49:18.829Z,24.20
2018-06-04T07:51:47.410Z,24.40
2018-06-04T07:54:16.099Z,24.80
2018-06-04T07:56:45.138Z,25.10
2018-06-04T07:59:13.874Z,25.20
2018-06-04T08:01:42.874Z,25.40
2018-06-04T08:04:11.524Z,25.70
2018-06-04T08:06:40.102Z,26.10
2018-06-04T08:09:08.772Z,26.20
2018-06-04T08:11:37.429Z,25.80
2018-06-04T08:14:06.085Z,25.40
2018-06-04T08:16:34.877Z,25.70
2018-06-04T08:19:03.520Z,26.30
2018-06-04T08:21:32.173Z,26.30
2018-06-04T08:24:01.026Z,25.80
2018-06-04T08:26:29.674Z,26.20
2018-06-04T08:28:58.254Z,26.90
2018-06-04T08:31:26.992Z,26.70
2018-06-04T08:33:55.651Z,26.90
2018-06-04T08:36:24.306Z,26.00
2018-06-04T08:38:53.558Z,26.40
2018-06-04T08:41:22.251Z,26.70
2018-06-04T08:43:50.963Z,26.20
2018-06-04T08:46:19.735Z,27.20
2018-06-04T08:48:48.272Z,26.70
2018-06-04T08:53:45.316Z,26.10
2018-06-04T08:56:13.987Z,26.50
2018-06-04T08:58:42.510Z,26.90
2018-06-04T09:01:11.307Z,27.80
2018-06-04T09:03:40.999Z,28.20
2018-06-04T09:06:09.623Z,28.50
2018-06-04T09:08:38.173Z,28.00
2018-06-04T09:11:06.926Z,27.50
2018-06-04T09:13:36.154Z,27.90
2018-06-04T09:16:04.818Z,27.70
2018-06-04T09:18:33.708Z,27.20
2018-06-04T09:21:02.283Z,26.90
2018-06-04T09:23:31.199Z,27.40
2018-06-04T09:25:59.852Z,28.00
2018-06-04T09:28:28.571Z,28.60
2018-06-04T09:30:57.314Z,28.50
2018-06-04T09:33:27.756Z,29.20
2018-06-04T09:35:56.408Z,28.00
2018-06-04T09:38:25.291Z,28.50
2018-06-04T09:40:53.854Z,28.30
2018-06-04T09:43:23.552Z,27.80
2018-06-04T09:45:52.239Z,27.50
2018-06-04T09:48:20.914Z,27.80
2018-06-04T09:50:49.801Z,28.60
2018-06-04T09:53:18.584Z,28.60
2018-06-04T09:55:47.272Z,28.30
2018-06-04T09:58:16.097Z,28.80
2018-06-04T10:00:45.016Z,29.30
2018-06-04T10:03:14.638Z,29.70
2018-06-04T10:05:43.427Z,29.10
2018-06-04T10:08:12.591Z,28.90
2018-06-04T10:10:43.195Z,28.70
2018-06-04T10:13:12.404Z,29.10
2018-06-04T10:15:42.098Z,30.00
2018-06-04T10:18:11.157Z,30.10
2018-06-04T10:20:39.941Z,30.50
2018-06-04T10:23:08.829Z,30.30
2018-06-04T10:25:37.852Z,29.30
2018-06-04T10:28:06.576Z,29.90
2018-06-04T10:30:35.225Z,30.40
2018-06-04T10:33:03.988Z,30.70
2018-06-04T10:35:32.584Z,31.00
2018-06-04T10:38:02.192Z,30.70
2018-06-04T10:40:30.898Z,30.10
2018-06-04T10:42:59.540Z,29.30
2018-06-04T10:45:29.025Z,28.90
2018-06-04T10:47:58.229Z,28.80
2018-06-04T10:50:26.844Z,29.10
2018-06-04T10:52:55.767Z,29.70
2018-06-04T10:55:24.435Z,30.10
2018-06-04T10:57:53.124Z,29.90
2018-06-04T11:00:21.860Z,30.00
2018-06-04T11:02:50.812Z,30.60
2018-06-04T11:05:20.861Z,30.30
2018-06-04T11:07:49.638Z,30.20
2018-06-04T11:10:19.004Z,30.00
2018-06-04T11:12:48.030Z,30.30
2018-06-04T11:15:16.763Z,30.70
2018-06-04T11:17:45.445Z,30.70
2018-06-04T11:20:14.029Z,30.50
2018-06-04T11:22:42.715Z,29.80
2018-06-04T11:25:11.453Z,30.70
2018-06-04T11:27:40.876Z,31.20
2018-06-04T11:30:09.559Z,31.00
2018-06-04T11:32:38.429Z,30.30
2018-06-04T11:35:07.076Z,29.70
2018-06-04T11:37:35.752Z,29.30
2018-06-04T11:40:04.536Z,29.10
2018-06-04T11:42:33.121Z,29.20
2018-06-04T11:45:02.008Z,29.20
2018-06-04T11:47:30.697Z,30.00
2018-06-04T11:50:00.044Z,29.20
2018-06-04T11:52:28.802Z,29.60
2018-06-04T11:54:57.618Z,29.30
2018-06-04T11:57:27.440Z,29.50
2018-06-04T11:59:56.042Z,29.90
2018-06-04T12:02:24.798Z,29.80
2018-06-04T12:04:54.037Z,30.60
2018-06-04T12:07:22.519Z,30.80
2018-06-04T12:09:51.027Z,30.70
2018-06-04T12:12:20.782Z,31.00
2018-06-04T12:14:49.436Z,31.20
2018-06-04T12:17:18.107Z,31.10
2018-06-04T12:19:48.722Z,31.50
2018-06-04T12:22:17.446Z,32.00
2018-06-04T12:24:46.121Z,32.00
2018-06-04T12:27:14.760Z,31.90
2018-06-04T12:29:43.407Z,31.90
2018-06-04T12:32:12.078Z,31.90
2018-06-04T12:34:40.670Z,32.10
2018-06-04T12:37:09.347Z,31.70
2018-06-04T12:39:38.136Z,31.20
2018-06-04T12:42:06.847Z,31.50
2018-06-04T12:44:35.536Z,31.20
2018-06-04T12:47:04.283Z,31.00
2018-06-04T12:49:33.474Z,31.10
2018-06-04T12:52:02.925Z,30.80
2018-06-04T12:54:31.481Z,30.40
2018-06-04T12:57:00.243Z,30.90
2018-06-04T12:59:29.171Z,30.90
2018-06-04T13:01:57.856Z,30.50
2018-06-04T13:04:26.580Z,30.80
2018-06-04T13:06:55.192Z,31.60
2018-06-04T13:09:23.785Z,32.10
2018-06-04T13:11:52.365Z,31.80
2018-06-04T13:14:20.946Z,31.70
2018-06-04T13:16:49.533Z,31.40
2018-06-04T13:19:18.097Z,32.10
2018-06-04T13:21:46.744Z,32.00
2018-06-04T13:24:15.319Z,32.50
2018-06-04T13:26:43.976Z,31.80
2018-06-04T13:29:12.587Z,31.30
2018-06-04T13:31:41.297Z,31.60
2018-06-04T13:34:09.934Z,31.20
2018-06-04T13:36:38.629Z,31.40
2018-06-04T13:39:08.813Z,31.60
2018-06-04T13:41:37.564Z,32.30
2018-06-04T13:44:06.429Z,31.60
2018-06-04T13:46:35.018Z,31.50
2018-06-04T13:49:03.628Z,31.10
2018-06-04T13:51:32.364Z,31.40
2018-06-04T13:54:00.949Z,31.50
2018-06-04T13:56:29.528Z,31.60
2018-06-04T13:58:58.276Z,31.70
2018-06-04T14:01:26.825Z,31.70
2018-06-04T14:03:55.437Z,30.70
2018-06-04T14:06:24.207Z,30.30
2018-06-04T14:08:53.042Z,30.60
2018-06-04T14:11:21.743Z,30.80
2018-06-04T14:13:50.252Z,30.70
2018-06-04T14:16:19.097Z,31.20
2018-06-04T14:18:49.605Z,31.40
2018-06-04T14:21:18.290Z,31.50
2018-06-04T14:23:46.936Z,31.90
2018-06-04T14:26:16.138Z,31.40
2018-06-04T14:28:44.780Z,31.50
2018-06-04T14:31:13.478Z,31.60
2018-06-04T14:33:42.804Z,31.90
2018-06-04T14:36:11.428Z,31.70
2018-06-04T14:38:40.076Z,31.10
2018-06-04T14:41:08.938Z,31.80
2018-06-04T14:43:37.652Z,31.70
2018-06-04T14:46:06.427Z,32.10
2018-06-04T14:51:03.371Z,32.00
2018-06-04T14:53:32.031Z,32.20
2018-06-04T14:56:00.672Z,31.00
2018-06-04T14:58:30.003Z,31.50
2018-06-04T15:00:58.638Z,31.70
2018-06-04T15:03:27.269Z,31.90
2018-06-04T15:05:56.481Z,31.20
2018-06-04T15:08:25.388Z,31.00
2018-06-04T15:10:54.216Z,30.90
2018-06-04T15:13:22.871Z,30.90
2018-06-04T15:15:51.445Z,31.10
2018-06-04T15:18:20.451Z,31.20
2018-06-04T15:20:49.375Z,31.40
2018-06-04T15:23:18.162Z,31.40
2018-06-04T15:25:47.046Z,31.00
2018-06-04T15:28:15.851Z,30.90
2018-06-04T15:30:44.567Z,30.80
2018-06-04T15:33:13.367Z,31.20
2018-06-04T15:35:42.714Z,31.30
2018-06-04T15:38:11.524Z,31.20
2018-06-04T15:40:40.226Z,30.40
2018-06-04T15:43:09.164Z,30.10
2018-06-04T15:45:38.747Z,30.10
2018-06-04T15:48:07.573Z,29.80
2018-06-04T15:50:36.323Z,29.90
2018-06-04T15:53:04.941Z,29.90
2018-06-04T15:55:33.733Z,29.40
2018-06-04T15:58:02.373Z,29.20
2018-06-04T16:00:31.093Z,29.00
2018-06-04T16:02:59.741Z,28.60
2018-06-04T16:05:28.457Z,28.80
2018-06-04T16:07:57.072Z,28.80
2018-06-04T16:10:25.761Z,29.00
2018-06-04T16:12:54.653Z,28.80
2018-06-04T16:15:23.942Z,28.20
2018-06-04T16:17:52.631Z,28.30
2018-06-04T16:20:21.389Z,28.30
2018-06-04T16:22:50.102Z,28.00
2018-06-04T16:25:18.744Z,28.10
2018-06-04T16:27:47.387Z,27.80
2018-06-04T16:30:16.313Z,27.70
2018-06-04T16:32:45.012Z,27.70
2018-06-04T16:35:13.995Z,27.40
2018-06-04T16:37:43.448Z,27.40
2018-06-04T16:40:12.298Z,27.30
2018-06-04T16:42:40.951Z,27.20
2018-06-04T16:45:09.699Z,27.20
2018-06-04T16:47:38.259Z,27.20
2018-06-04T16:50:06.881Z,27.10
2018-06-04T16:52:35.531Z,26.90
2018-06-04T16:55:05.501Z,26.60
2018-06-04T16:57:34.158Z,26.70
2018-06-04T17:00:04.375Z,26.40
2018-06-04T17:02:33.138Z,26.30
2018-06-04T17:05:01.852Z,26.30
2018-06-04T17:07:30.550Z,26.30
2018-06-04T17:09:59.200Z,26.20
2018-06-04T17:12:27.827Z,26.30
2018-06-04T17:14:56.440Z,26.10
2018-06-04T17:17:25.025Z,25.90
2018-06-04T17:19:54.251Z,25.70
2018-06-04T17:22:22.840Z,25.50
2018-06-04T17:24:51.561Z,25.50
2018-06-04T17:27:20.148Z,25.50
2018-06-04T17:29:49.020Z,25.50
2018-06-04T17:32:17.594Z,25.50
2018-06-04T17:34:46.261Z,25.40
2018-06-04T17:37:15.065Z,25.40
2018-06-04T17:39:43.726Z,25.30
2018-06-04T17:42:12.581Z,25.20
2018-06-04T17:44:41.244Z,25.00
2018-06-04T17:47:09.864Z,25.00
2018-06-04T17:49:38.481Z,25.00
2018-06-04T17:52:07.046Z,24.90
2018-06-04T17:54:35.696Z,24.80
2018-06-04T17:57:04.444Z,24.70
2018-06-04T17:59:33.033Z,24.70
2018-06-04T18:02:01.575Z,24.50
2018-06-04T18:04:30.253Z,24.40
2018-06-04T18:06:58.806Z,24.40
2018-06-04T18:09:27.371Z,24.40
2018-06-04T18:11:56.141Z,24.30
2018-06-04T18:14:24.767Z,24.20
2018-06-04T18:16:53.513Z,24.10
2018-06-04T18:19:22.197Z,24.00
2018-06-04T18:21:51.654Z,24.00
2018-06-04T18:24:20.322Z,23.90
2018-06-04T18:26:49.304Z,24.00
2018-06-04T18:29:19.035Z,23.80
2018-06-04T18:31:47.617Z,23.70
2018-06-04T18:34:16.512Z,23.70
2018-06-04T18:36:45.077Z,23.60
2018-06-04T18:39:13.717Z,23.60
2018-06-04T18:41:42.653Z,23.40
2018-06-04T18:44:11.412Z,23.40
2018-06-04T18:46:39.990Z,23.30
2018-06-04T18:49:09.525Z,23.20
2018-06-04T18:51:38.094Z,23.00
2018-06-04T18:54:07.039Z,22.90
2018-06-04T18:56:35.600Z,22.90
2018-06-04T18:59:04.139Z,22.60
2018-06-04T19:01:32.898Z,22.60
2018-06-04T19:04:01.484Z,22.60
2018-06-04T19:06:30.043Z,22.50
2018-06-04T19:08:58.678Z,22.40
2018-06-04T19:11:27.185Z,22.30
2018-06-04T19:13:56.179Z,22.20
2018-06-04T19:16:24.666Z,22.10
2018-06-04T19:18:53.410Z,22.10
2018-06-04T19:21:21.993Z,22.10
2018-06-04T19:23:50.588Z,22.00
2018-06-04T19:26:19.175Z,21.90
2018-06-04T19:28:47.770Z,21.80
2018-06-04T19:31:17.983Z,21.80
2018-06-04T19:33:46.570Z,21.60
2018-06-04T19:36:15.171Z,21.50
2018-06-04T19:38:43.759Z,21.50
2018-06-04T19:41:12.448Z,21.50
2018-06-04T19:43:41.190Z,21.40
2018-06-04T19:46:09.873Z,21.40
2018-06-04T19:48:38.744Z,21.30
2018-06-04T19:51:07.325Z,21.20
2018-06-04T19:53:36.003Z,21.10
2018-06-04T19:56:04.580Z,21.10
2018-06-04T19:58:33.383Z,21.00
2018-06-04T20:01:02.090Z,20.90
2018-06-04T20:03:31.065Z,20.80
2018-06-04T20:05:59.752Z,20.80
2018-06-04T20:08:29.056Z,20.60
2018-06-04T20:10:57.835Z,20.60
2018-06-04T20:13:26.493Z,20.60
2018-06-04T20:15:55.199Z,20.50
2018-06-04T20:18:24.340Z,20.50
2018-06-04T20:20:52.923Z,20.30
2018-06-04T20:23:22.216Z,20.20
2018-06-04T20:25:50.916Z,20.20
2018-06-04T20:28:19.561Z,20.10
2018-06-04T20:30:48.103Z,20.00
2018-06-04T20:33:16.880Z,19.90
2018-06-04T20:35:45.511Z,19.80
2018-06-04T20:38:14.708Z,19.80
2018-06-04T20:40:43.242Z,19.70
2018-06-04T20:43:11.796Z,19.60
2018-06-04T20:45:40.387Z,19.50
2018-06-04T20:48:08.941Z,19.40
2018-06-04T20:50:37.466Z,19.30
2018-06-04T20:53:06.267Z,19.20
2018-06-04T20:55:34.792Z,19.10
2018-06-04T20:58:03.356Z,19.10
2018-06-04T21:00:31.864Z,19.10
2018-06-04T21:03:00.496Z,19.10
2018-06-04T21:05:29.045Z,19.00
2018-06-04T21:07:57.631Z,18.90
2018-06-04T21:10:26.242Z,18.90
2018-06-04T21:12:54.806Z,18.80
2018-06-04T21:15:23.356Z,18.70
2018-06-04T21:17:51.906Z,18.70
2018-06-04T21:20:20.472Z,18.60
2018-06-04T21:22:49.077Z,18.50
2018-06-04T21:25:17.586Z,18.40
2018-06-04T21:27:46.119Z,18.30
2018-06-04T21:30:14.731Z,18.20
2018-06-04T21:32:43.208Z,18.20
2018-06-04T21:35:11.896Z,18.10
2018-06-04T21:37:40.401Z,18.00
2018-06-04T21:40:08.904Z,18.00
2018-06-04T21:42:37.569Z,17.90
2018-06-04T21:45:06.160Z,17.80
2018-06-04T21:47:34.739Z,17.80
2018-06-04T21:50:03.317Z,17.70
2018-06-04T21:52:32.753Z,17.70
2018-06-04T21:55:01.608Z,17.60
2018-06-04T21:57:30.887Z,17.60
2018-06-04T22:02:27.971Z,17.50
2018-06-04T22:07:24.734Z,17.30
2018-06-04T22:09:53.279Z,17.30
2018-06-04T22:12:21.831Z,17.20
2018-06-04T22:14:50.853Z,17.10
2018-06-04T22:17:19.428Z,17.10
2018-06-04T22:19:47.979Z,17.00
2018-06-04T22:22:16.525Z,17.00
2018-06-04T22:24:45.038Z,16.90
2018-06-04T22:27:13.538Z,16.90
2018-06-04T22:29:42.106Z,16.90
2018-06-04T22:32:10.594Z,16.80
2018-06-04T22:34:39.276Z,16.80
2018-06-04T22:37:07.836Z,16.70
2018-06-04T22:39:37.791Z,16.70
2018-06-04T22:42:06.534Z,16.70
2018-06-04T22:44:35.418Z,16.70
2018-06-04T22:47:03.912Z,16.60
2018-06-04T22:49:32.448Z,16.60
2018-06-04T22:54:29.341Z,16.50
2018-06-04T22:56:57.816Z,16.50
2018-06-04T22:59:26.406Z,16.40
2018-06-04T23:01:54.895Z,16.40
2018-06-04T23:04:23.438Z,16.40
2018-06-04T23:06:51.983Z,16.40
2018-06-04T23:09:20.465Z,16.40
2018-06-04T23:11:49.011Z,16.30
2018-06-04T23:14:17.504Z,16.30
2018-06-04T23:16:46.011Z,16.20
2018-06-04T23:19:14.530Z,16.20
2018-06-04T23:21:43.072Z,16.10
2018-06-04T23:24:11.601Z,16.20
2018-06-04T23:26:40.136Z,16.20
2018-06-04T23:29:08.656Z,16.10
2018-06-04T23:31:37.292Z,16.10
2018-06-04T23:34:05.855Z,16.10
2018-06-04T23:36:34.373Z,16.10
2018-06-04T23:39:02.919Z,16.10
2018-06-04T23:41:31.510Z,16.00
2018-06-04T23:44:00.054Z,16.00
2018-06-04T23:46:28.569Z,16.00
2018-06-04T23:48:57.109Z,15.90
2018-06-04T23:51:25.638Z,15.90
2018-06-04T23:53:54.151Z,15.90
2018-06-04T23:56:22.808Z,15.80
2018-06-04T23:58:51.286Z,15.80
